sensor_id;sensor_type;location;lat;lon;timestamp;temperature;humidity
10702;DHT22;5402;50.004;8.246;2022-12-29T00:02:06;10.80;99.90
10702;DHT22;5402;50.004;8.246;2022-12-29T00:04:33;10.70;99.90
10702;DHT22;5402;50.004;8.246;2022-12-29T00:07:00;10.70;99.90
10702;DHT22;5402;50.004;8.246;2022-12-29T00:09:26;10.80;99.90
10702;DHT22;5402;50.004;8.246;2022-12-29T00:11:55;10.70;99.90
10702;DHT22;5402;50.004;8.246;2022-12-29T00:14:21;10.80;99.90
10702;DHT22;5402;50.004;8.246;2022-12-29T00:17:06;10.80;99.90
10702;DHT22;5402;50.004;8.246;2022-12-29T00:19:33;10.80;99.90
10702;DHT22;5402;50.004;8.246;2022-12-29T00:22:18;10.80;99.90
10702;DHT22;5402;50.004;8.246;2022-12-29T00:25:04;10.80;99.90
10702;DHT22;5402;50.004;8.246;2022-12-29T00:27:51;10.80;99.90
10702;DHT22;5402;50.004;8.246;2022-12-29T00:30:35;10.80;99.90
10702;DHT22;5402;50.004;8.246;2022-12-29T00:33:30;10.70;99.90
10702;DHT22;5402;50.004;8.246;2022-12-29T00:36:17;10.70;99.90
10702;DHT22;5402;50.004;8.246;2022-12-29T00:38:47;10.80;99.90
10702;DHT22;5402;50.004;8.246;2022-12-29T00:41:39;10.80;99.90
10702;DHT22;5402;50.004;8.246;2022-12-29T00:44:25;10.70;99.90
10702;DHT22;5402;50.004;8.246;2022-12-29T00:46:51;10.70;99.90
10702;DHT22;5402;50.004;8.246;2022-12-29T00:49:18;10.80;99.90
10702;DHT22;5402;50.004;8.246;2022-12-29T00:52:03;10.70;99.90
10702;DHT22;5402;50.004;8.246;2022-12-29T00:54:31;10.70;99.90
10702;DHT22;5402;50.004;8.246;2022-12-29T00:57:00;10.70;99.90
10702;DHT22;5402;50.004;8.246;2022-12-29T00:59:29;10.80;99.90
10702;DHT22;5402;50.004;8.246;2022-12-29T01:01:56;10.70;99.90
10702;DHT22;5402;50.004;8.246;2022-12-29T01:04:26;10.70;99.90
10702;DHT22;5402;50.004;8.246;2022-12-29T01:06:55;10.60;99.90
10702;DHT22;5402;50.004;8.246;2022-12-29T01:09:26;10.70;99.90
10702;DHT22;5402;50.004;8.246;2022-12-29T01:12:11;10.50;99.90
10702;DHT22;5402;50.004;8.246;2022-12-29T01:14:39;10.60;99.90
10702;DHT22;5402;50.004;8.246;2022-12-29T01:17:06;10.60;99.90
10702;DHT22;5402;50.004;8.246;2022-12-29T01:19:33;10.60;99.90
10702;DHT22;5402;50.004;8.246;2022-12-29T01:22:02;10.60;99.90
10702;DHT22;5402;50.004;8.246;2022-12-29T01:24:29;10.60;99.90
10702;DHT22;5402;50.004;8.246;2022-12-29T01:26:55;10.60;99.90
10702;DHT22;5402;50.004;8.246;2022-12-29T01:29:22;10.60;99.90
10702;DHT22;5402;50.004;8.246;2022-12-29T01:31:50;10.60;99.90
10702;DHT22;5402;50.004;8.246;2022-12-29T01:34:17;10.50;99.90
10702;DHT22;5402;50.004;8.246;2022-12-29T01:36:51;10.60;99.90
10702;DHT22;5402;50.004;8.246;2022-12-29T01:39:21;10.50;99.90
10702;DHT22;5402;50.004;8.246;2022-12-29T01:41:58;10.50;99.90
10702;DHT22;5402;50.004;8.246;2022-12-29T01:44:49;10.70;99.90
10702;DHT22;5402;50.004;8.246;2022-12-29T01:47:23;10.60;99.90
10702;DHT22;5402;50.004;8.246;2022-12-29T01:49:54;10.60;99.90
10702;DHT22;5402;50.004;8.246;2022-12-29T01:52:24;10.70;99.90
10702;DHT22;5402;50.004;8.246;2022-12-29T01:54:53;10.50;99.90
10702;DHT22;5402;50.004;8.246;2022-12-29T01:57:25;10.60;99.90
10702;DHT22;5402;50.004;8.246;2022-12-29T01:59:57;10.70;99.90
10702;DHT22;5402;50.004;8.246;2022-12-29T02:02:33;10.70;99.90
10702;DHT22;5402;50.004;8.246;2022-12-29T02:05:07;10.70;99.90
10702;DHT22;5402;50.004;8.246;2022-12-29T02:07:37;10.70;99.90
10702;DHT22;5402;50.004;8.246;2022-12-29T02:10:06;10.70;99.90
10702;DHT22;5402;50.004;8.246;2022-12-29T02:12:35;10.70;99.90
10702;DHT22;5402;50.004;8.246;2022-12-29T02:15:03;10.60;99.90
10702;DHT22;5402;50.004;8.246;2022-12-29T02:17:45;10.70;99.90
10702;DHT22;5402;50.004;8.246;2022-12-29T02:20:47;10.60;99.90
10702;DHT22;5402;50.004;8.246;2022-12-29T02:23:53;10.60;99.90
10702;DHT22;5402;50.004;8.246;2022-12-29T02:26:40;10.60;99.90
10702;DHT22;5402;50.004;8.246;2022-12-29T02:32:32;10.50;99.90
10702;DHT22;5402;50.004;8.246;2022-12-29T02:35:08;10.50;99.90
10702;DHT22;5402;50.004;8.246;2022-12-29T02:37:41;10.50;99.90
10702;DHT22;5402;50.004;8.246;2022-12-29T02:40:18;10.60;99.90
10702;DHT22;5402;50.004;8.246;2022-12-29T02:42:55;10.50;99.90
10702;DHT22;5402;50.004;8.246;2022-12-29T02:45:30;10.60;99.90
10702;DHT22;5402;50.004;8.246;2022-12-29T02:48:04;10.70;99.90
10702;DHT22;5402;50.004;8.246;2022-12-29T02:50:37;10.60;99.90
10702;DHT22;5402;50.004;8.246;2022-12-29T02:53:07;10.70;99.90
10702;DHT22;5402;50.004;8.246;2022-12-29T02:55:35;10.70;99.90
10702;DHT22;5402;50.004;8.246;2022-12-29T02:58:22;10.70;99.90
10702;DHT22;5402;50.004;8.246;2022-12-29T03:01:06;10.80;99.90
10702;DHT22;5402;50.004;8.246;2022-12-29T03:03:51;10.80;99.90
10702;DHT22;5402;50.004;8.246;2022-12-29T03:06:33;10.70;99.90
10702;DHT22;5402;50.004;8.246;2022-12-29T03:09:19;10.80;99.90
10702;DHT22;5402;50.004;8.246;2022-12-29T03:11:53;10.90;99.90
10702;DHT22;5402;50.004;8.246;2022-12-29T03:14:47;10.80;99.90
10702;DHT22;5402;50.004;8.246;2022-12-29T03:17:42;10.80;99.90
10702;DHT22;5402;50.004;8.246;2022-12-29T03:20:16;10.90;99.90
10702;DHT22;5402;50.004;8.246;2022-12-29T03:22:47;10.90;99.90
10702;DHT22;5402;50.004;8.246;2022-12-29T03:25:23;10.90;99.90
10702;DHT22;5402;50.004;8.246;2022-12-29T03:27:57;10.90;99.90
10702;DHT22;5402;50.004;8.246;2022-12-29T03:30:26;11.00;99.90
10702;DHT22;5402;50.004;8.246;2022-12-29T03:32:58;11.00;99.90
10702;DHT22;5402;50.004;8.246;2022-12-29T03:35:31;11.00;99.90
10702;DHT22;5402;50.004;8.246;2022-12-29T03:38:05;11.10;99.90
10702;DHT22;5402;50.004;8.246;2022-12-29T03:40:34;11.20;99.90
10702;DHT22;5402;50.004;8.246;2022-12-29T03:43:02;11.20;99.90
10702;DHT22;5402;50.004;8.246;2022-12-29T03:45:29;11.20;99.90
10702;DHT22;5402;50.004;8.246;2022-12-29T03:47:56;11.10;99.90
10702;DHT22;5402;50.004;8.246;2022-12-29T03:50:23;11.30;99.90
10702;DHT22;5402;50.004;8.246;2022-12-29T03:52:52;11.50;99.90
10702;DHT22;5402;50.004;8.246;2022-12-29T03:55:19;11.30;99.90
10702;DHT22;5402;50.004;8.246;2022-12-29T03:57:56;11.30;99.90
10702;DHT22;5402;50.004;8.246;2022-12-29T04:00:25;11.30;99.90
10702;DHT22;5402;50.004;8.246;2022-12-29T04:02:53;11.50;99.90
10702;DHT22;5402;50.004;8.246;2022-12-29T04:05:22;11.40;99.90
10702;DHT22;5402;50.004;8.246;2022-12-29T04:07:50;11.40;99.90
10702;DHT22;5402;50.004;8.246;2022-12-29T04:10:20;11.80;99.90
10702;DHT22;5402;50.004;8.246;2022-12-29T04:12:50;11.40;99.90
10702;DHT22;5402;50.004;8.246;2022-12-29T04:15:17;11.50;99.90
10702;DHT22;5402;50.004;8.246;2022-12-29T04:17:44;11.40;99.90
10702;DHT22;5402;50.004;8.246;2022-12-29T04:20:10;11.50;99.90
10702;DHT22;5402;50.004;8.246;2022-12-29T04:23:00;11.50;99.90
10702;DHT22;5402;50.004;8.246;2022-12-29T04:25:27;11.50;99.90
10702;DHT22;5402;50.004;8.246;2022-12-29T04:27:54;11.50;99.90
10702;DHT22;5402;50.004;8.246;2022-12-29T04:30:23;11.50;99.90
10702;DHT22;5402;50.004;8.246;2022-12-29T04:32:55;11.70;99.90
10702;DHT22;5402;50.004;8.246;2022-12-29T04:35:22;11.70;99.90
10702;DHT22;5402;50.004;8.246;2022-12-29T04:37:49;11.60;99.90
10702;DHT22;5402;50.004;8.246;2022-12-29T04:40:18;11.60;99.90
10702;DHT22;5402;50.004;8.246;2022-12-29T04:42:47;11.60;99.90
10702;DHT22;5402;50.004;8.246;2022-12-29T04:45:17;11.60;99.90
10702;DHT22;5402;50.004;8.246;2022-12-29T04:48:01;11.20;99.90
10702;DHT22;5402;50.004;8.246;2022-12-29T04:50:28;11.60;99.90
10702;DHT22;5402;50.004;8.246;2022-12-29T04:52:55;11.50;99.90
10702;DHT22;5402;50.004;8.246;2022-12-29T04:55:23;11.50;99.90
10702;DHT22;5402;50.004;8.246;2022-12-29T04:57:50;11.60;99.90
10702;DHT22;5402;50.004;8.246;2022-12-29T05:00:19;11.40;99.90
10702;DHT22;5402;50.004;8.246;2022-12-29T05:02:48;11.40;99.90
10702;DHT22;5402;50.004;8.246;2022-12-29T05:05:23;11.30;99.90
10702;DHT22;5402;50.004;8.246;2022-12-29T05:07:50;11.30;99.90
10702;DHT22;5402;50.004;8.246;2022-12-29T05:10:17;11.20;99.90
10702;DHT22;5402;50.004;8.246;2022-12-29T05:12:57;11.20;99.90
10702;DHT22;5402;50.004;8.246;2022-12-29T05:15:27;11.30;99.90
10702;DHT22;5402;50.004;8.246;2022-12-29T05:17:53;11.00;99.90
10702;DHT22;5402;50.004;8.246;2022-12-29T05:20:20;11.10;99.90
10702;DHT22;5402;50.004;8.246;2022-12-29T05:22:51;11.20;99.90
10702;DHT22;5402;50.004;8.246;2022-12-29T05:25:20;10.90;99.90
10702;DHT22;5402;50.004;8.246;2022-12-29T05:27:52;10.90;99.90
10702;DHT22;5402;50.004;8.246;2022-12-29T05:30:21;11.10;99.90
10702;DHT22;5402;50.004;8.246;2022-12-29T05:32:47;11.30;99.90
10702;DHT22;5402;50.004;8.246;2022-12-29T05:35:14;10.90;99.90
10702;DHT22;5402;50.004;8.246;2022-12-29T05:37:41;11.00;99.90
10702;DHT22;5402;50.004;8.246;2022-12-29T05:40:08;11.00;99.90
10702;DHT22;5402;50.004;8.246;2022-12-29T05:42:35;11.00;99.90
10702;DHT22;5402;50.004;8.246;2022-12-29T05:45:04;10.90;99.90
10702;DHT22;5402;50.004;8.246;2022-12-29T05:47:32;11.00;99.90
10702;DHT22;5402;50.004;8.246;2022-12-29T05:50:00;11.10;99.90
10702;DHT22;5402;50.004;8.246;2022-12-29T05:52:28;11.20;99.90
10702;DHT22;5402;50.004;8.246;2022-12-29T05:54:58;11.20;99.90
10702;DHT22;5402;50.004;8.246;2022-12-29T05:57:26;11.10;99.90
10702;DHT22;5402;50.004;8.246;2022-12-29T05:59:52;11.20;99.90
10702;DHT22;5402;50.004;8.246;2022-12-29T06:02:20;11.20;99.90
10702;DHT22;5402;50.004;8.246;2022-12-29T06:04:47;11.30;99.90
10702;DHT22;5402;50.004;8.246;2022-12-29T06:07:14;11.30;99.90
10702;DHT22;5402;50.004;8.246;2022-12-29T06:09:41;11.30;99.90
10702;DHT22;5402;50.004;8.246;2022-12-29T06:12:08;11.60;99.90
10702;DHT22;5402;50.004;8.246;2022-12-29T06:14:34;11.60;99.90
10702;DHT22;5402;50.004;8.246;2022-12-29T06:17:03;11.50;99.90
10702;DHT22;5402;50.004;8.246;2022-12-29T06:19:33;11.50;99.90
10702;DHT22;5402;50.004;8.246;2022-12-29T06:22:07;11.50;99.90
10702;DHT22;5402;50.004;8.246;2022-12-29T06:24:34;11.60;99.90
10702;DHT22;5402;50.004;8.246;2022-12-29T06:27:00;11.40;99.90
10702;DHT22;5402;50.004;8.246;2022-12-29T06:29:34;11.60;99.90
10702;DHT22;5402;50.004;8.246;2022-12-29T06:32:05;11.60;99.90
10702;DHT22;5402;50.004;8.246;2022-12-29T06:34:35;11.60;99.90
10702;DHT22;5402;50.004;8.246;2022-12-29T06:37:06;11.70;99.90
10702;DHT22;5402;50.004;8.246;2022-12-29T06:39:34;11.50;99.90
10702;DHT22;5402;50.004;8.246;2022-12-29T06:42:09;11.40;99.90
10702;DHT22;5402;50.004;8.246;2022-12-29T06:44:45;11.40;99.90
10702;DHT22;5402;50.004;8.246;2022-12-29T06:47:12;11.30;99.90
10702;DHT22;5402;50.004;8.246;2022-12-29T06:49:40;11.40;99.90
10702;DHT22;5402;50.004;8.246;2022-12-29T06:52:07;11.30;99.90
10702;DHT22;5402;50.004;8.246;2022-12-29T06:54:37;11.40;99.90
10702;DHT22;5402;50.004;8.246;2022-12-29T06:57:08;11.70;99.90
10702;DHT22;5402;50.004;8.246;2022-12-29T06:59:45;11.50;99.90
10702;DHT22;5402;50.004;8.246;2022-12-29T07:02:12;11.50;99.90
10702;DHT22;5402;50.004;8.246;2022-12-29T07:04:41;11.70;99.90
10702;DHT22;5402;50.004;8.246;2022-12-29T07:07:08;11.40;99.90
10702;DHT22;5402;50.004;8.246;2022-12-29T07:09:36;11.50;99.90
10702;DHT22;5402;50.004;8.246;2022-12-29T07:12:09;11.50;99.90
10702;DHT22;5402;50.004;8.246;2022-12-29T07:14:38;11.50;99.90
10702;DHT22;5402;50.004;8.246;2022-12-29T07:17:06;11.60;99.90
10702;DHT22;5402;50.004;8.246;2022-12-29T07:19:38;11.70;99.90
10702;DHT22;5402;50.004;8.246;2022-12-29T07:22:10;11.60;99.90
10702;DHT22;5402;50.004;8.246;2022-12-29T07:24:37;12.00;99.90
10702;DHT22;5402;50.004;8.246;2022-12-29T07:27:06;11.60;99.90
10702;DHT22;5402;50.004;8.246;2022-12-29T07:29:36;11.70;99.90
10702;DHT22;5402;50.004;8.246;2022-12-29T07:32:06;11.60;99.90
10702;DHT22;5402;50.004;8.246;2022-12-29T07:34:33;11.50;99.90
10702;DHT22;5402;50.004;8.246;2022-12-29T07:37:00;12.00;99.90
10702;DHT22;5402;50.004;8.246;2022-12-29T07:39:28;11.70;99.90
10702;DHT22;5402;50.004;8.246;2022-12-29T07:41:55;11.80;99.90
10702;DHT22;5402;50.004;8.246;2022-12-29T07:44:21;11.70;99.90
10702;DHT22;5402;50.004;8.246;2022-12-29T07:47:06;11.60;99.90
10702;DHT22;5402;50.004;8.246;2022-12-29T07:49:54;11.60;99.90
10702;DHT22;5402;50.004;8.246;2022-12-29T07:52:21;11.60;99.90
10702;DHT22;5402;50.004;8.246;2022-12-29T07:54:49;11.50;99.90
10702;DHT22;5402;50.004;8.246;2022-12-29T07:57:24;11.50;99.90
10702;DHT22;5402;50.004;8.246;2022-12-29T07:59:51;11.50;99.90
10702;DHT22;5402;50.004;8.246;2022-12-29T08:02:18;11.90;99.90
10702;DHT22;5402;50.004;8.246;2022-12-29T08:04:45;11.50;99.90
10702;DHT22;5402;50.004;8.246;2022-12-29T08:07:11;11.50;99.90
10702;DHT22;5402;50.004;8.246;2022-12-29T08:09:38;11.50;99.90
10702;DHT22;5402;50.004;8.246;2022-12-29T08:12:09;11.50;99.90
10702;DHT22;5402;50.004;8.246;2022-12-29T08:14:36;11.40;99.90
10702;DHT22;5402;50.004;8.246;2022-12-29T08:17:03;11.50;99.90
10702;DHT22;5402;50.004;8.246;2022-12-29T08:19:31;11.30;99.90
10702;DHT22;5402;50.004;8.246;2022-12-29T08:21:57;11.30;99.90
10702;DHT22;5402;50.004;8.246;2022-12-29T08:24:30;11.20;99.90
10702;DHT22;5402;50.004;8.246;2022-12-29T08:26:57;11.20;99.90
10702;DHT22;5402;50.004;8.246;2022-12-29T08:29:25;11.20;99.90
10702;DHT22;5402;50.004;8.246;2022-12-29T08:31:52;11.30;99.90
10702;DHT22;5402;50.004;8.246;2022-12-29T08:34:25;11.30;99.90
10702;DHT22;5402;50.004;8.246;2022-12-29T08:36:51;11.20;99.90
10702;DHT22;5402;50.004;8.246;2022-12-29T08:39:24;11.20;99.90
10702;DHT22;5402;50.004;8.246;2022-12-29T08:41:53;11.60;99.90
10702;DHT22;5402;50.004;8.246;2022-12-29T08:44:21;11.40;99.90
10702;DHT22;5402;50.004;8.246;2022-12-29T08:46:49;10.90;99.90
10702;DHT22;5402;50.004;8.246;2022-12-29T08:49:16;10.90;99.90
10702;DHT22;5402;50.004;8.246;2022-12-29T08:51:43;10.80;99.90
10702;DHT22;5402;50.004;8.246;2022-12-29T08:54:09;10.70;99.90
10702;DHT22;5402;50.004;8.246;2022-12-29T08:56:36;10.50;99.90
10702;DHT22;5402;50.004;8.246;2022-12-29T08:59:12;10.50;99.90
10702;DHT22;5402;50.004;8.246;2022-12-29T09:01:39;10.60;99.90
10702;DHT22;5402;50.004;8.246;2022-12-29T09:04:07;10.40;99.90
10702;DHT22;5402;50.004;8.246;2022-12-29T09:06:34;10.40;99.90
10702;DHT22;5402;50.004;8.246;2022-12-29T09:09:03;10.50;99.90
10702;DHT22;5402;50.004;8.246;2022-12-29T09:11:36;10.30;99.90
10702;DHT22;5402;50.004;8.246;2022-12-29T09:14:03;10.40;99.90
10702;DHT22;5402;50.004;8.246;2022-12-29T09:16:30;10.20;99.90
10702;DHT22;5402;50.004;8.246;2022-12-29T09:18:57;10.20;99.90
10702;DHT22;5402;50.004;8.246;2022-12-29T09:21:25;10.10;99.90
10702;DHT22;5402;50.004;8.246;2022-12-29T09:23:52;10.00;99.90
10702;DHT22;5402;50.004;8.246;2022-12-29T09:26:19;9.90;99.90
10702;DHT22;5402;50.004;8.246;2022-12-29T09:32:19;9.90;99.90
10702;DHT22;5402;50.004;8.246;2022-12-29T09:38:53;9.90;99.90
10702;DHT22;5402;50.004;8.246;2022-12-29T09:41:29;9.90;99.90
10702;DHT22;5402;50.004;8.246;2022-12-29T09:44:05;9.80;99.90
10702;DHT22;5402;50.004;8.246;2022-12-29T10:01:07;9.60;99.90
10702;DHT22;5402;50.004;8.246;2022-12-29T10:03:43;9.70;99.90
10702;DHT22;5402;50.004;8.246;2022-12-29T10:06:32;10.10;99.90
10702;DHT22;5402;50.004;8.246;2022-12-29T10:09:12;9.70;99.90
10702;DHT22;5402;50.004;8.246;2022-12-29T10:12:16;9.60;99.90
10702;DHT22;5402;50.004;8.246;2022-12-29T10:15:40;9.70;99.90
10702;DHT22;5402;50.004;8.246;2022-12-29T10:22:00;9.70;99.90
10702;DHT22;5402;50.004;8.246;2022-12-29T10:24:31;9.60;99.90
10702;DHT22;5402;50.004;8.246;2022-12-29T10:26:58;10.10;99.90
10702;DHT22;5402;50.004;8.246;2022-12-29T10:32:54;9.40;99.90
10702;DHT22;5402;50.004;8.246;2022-12-29T10:35:32;9.60;99.90
10702;DHT22;5402;50.004;8.246;2022-12-29T10:38:25;9.90;99.90
10702;DHT22;5402;50.004;8.246;2022-12-29T10:41:00;9.60;99.90
10702;DHT22;5402;50.004;8.246;2022-12-29T10:43:43;9.60;99.90
10702;DHT22;5402;50.004;8.246;2022-12-29T10:46:16;9.70;99.90
10702;DHT22;5402;50.004;8.246;2022-12-29T10:48:49;9.80;99.90
10702;DHT22;5402;50.004;8.246;2022-12-29T10:55:17;10.10;99.90
10702;DHT22;5402;50.004;8.246;2022-12-29T10:57:46;10.20;99.90
10702;DHT22;5402;50.004;8.246;2022-12-29T11:00:18;10.30;99.90
10702;DHT22;5402;50.004;8.246;2022-12-29T11:03:26;10.40;99.90
10702;DHT22;5402;50.004;8.246;2022-12-29T11:06:01;10.70;99.90
10702;DHT22;5402;50.004;8.246;2022-12-29T11:14:29;10.90;99.90
10702;DHT22;5402;50.004;8.246;2022-12-29T11:20:27;11.40;99.90
10702;DHT22;5402;50.004;8.246;2022-12-29T11:23:23;11.00;99.90
10702;DHT22;5402;50.004;8.246;2022-12-29T11:26:23;11.00;99.90
10702;DHT22;5402;50.004;8.246;2022-12-29T11:35:58;11.30;99.90
10702;DHT22;5402;50.004;8.246;2022-12-29T11:38:30;11.30;99.90
10702;DHT22;5402;50.004;8.246;2022-12-29T11:44:57;11.20;99.90
10702;DHT22;5402;50.004;8.246;2022-12-29T11:47:31;11.30;99.90
10702;DHT22;5402;50.004;8.246;2022-12-29T11:50:00;11.10;99.90
10702;DHT22;5402;50.004;8.246;2022-12-29T11:52:38;11.10;99.90
10702;DHT22;5402;50.004;8.246;2022-12-29T11:55:17;11.10;99.90
10702;DHT22;5402;50.004;8.246;2022-12-29T11:57:45;11.20;99.90
10702;DHT22;5402;50.004;8.246;2022-12-29T12:00:32;11.20;99.90
10702;DHT22;5402;50.004;8.246;2022-12-29T12:03:10;11.20;99.90
10702;DHT22;5402;50.004;8.246;2022-12-29T12:09:10;11.20;99.90
10702;DHT22;5402;50.004;8.246;2022-12-29T12:14:29;11.10;99.90
10702;DHT22;5402;50.004;8.246;2022-12-29T12:14:54;11.00;99.90
10702;DHT22;5402;50.004;8.246;2022-12-29T12:29:24;10.80;99.90
10702;DHT22;5402;50.004;8.246;2022-12-29T12:35:21;11.00;99.90
10702;DHT22;5402;50.004;8.246;2022-12-29T12:38:00;11.30;99.90
10702;DHT22;5402;50.004;8.246;2022-12-29T12:40:59;11.00;99.90
10702;DHT22;5402;50.004;8.246;2022-12-29T12:43:45;11.30;99.90
10702;DHT22;5402;50.004;8.246;2022-12-29T12:49:35;11.10;99.90
10702;DHT22;5402;50.004;8.246;2022-12-29T12:52:16;11.30;99.90
10702;DHT22;5402;50.004;8.246;2022-12-29T12:55:00;11.30;99.90
10702;DHT22;5402;50.004;8.246;2022-12-29T12:57:44;11.40;99.90
10702;DHT22;5402;50.004;8.246;2022-12-29T13:00:15;11.40;99.90
10702;DHT22;5402;50.004;8.246;2022-12-29T13:02:56;11.60;99.90
10702;DHT22;5402;50.004;8.246;2022-12-29T13:05:47;11.80;99.90
10702;DHT22;5402;50.004;8.246;2022-12-29T13:08:45;11.70;99.90
10702;DHT22;5402;50.004;8.246;2022-12-29T13:11:24;11.70;99.90
10702;DHT22;5402;50.004;8.246;2022-12-29T13:14:22;11.70;99.90
10702;DHT22;5402;50.004;8.246;2022-12-29T13:16:57;11.70;99.90
10702;DHT22;5402;50.004;8.246;2022-12-29T13:19:33;11.70;99.90
10702;DHT22;5402;50.004;8.246;2022-12-29T13:22:07;12.00;99.90
10702;DHT22;5402;50.004;8.246;2022-12-29T13:24:44;11.70;99.90
10702;DHT22;5402;50.004;8.246;2022-12-29T13:27:16;11.80;99.90
10702;DHT22;5402;50.004;8.246;2022-12-29T13:29:49;11.80;99.90
10702;DHT22;5402;50.004;8.246;2022-12-29T13:32:24;12.10;99.90
10702;DHT22;5402;50.004;8.246;2022-12-29T13:35:03;11.80;99.90
10702;DHT22;5402;50.004;8.246;2022-12-29T13:37:38;11.70;99.90
10702;DHT22;5402;50.004;8.246;2022-12-29T13:40:13;11.70;99.90
10702;DHT22;5402;50.004;8.246;2022-12-29T13:42:41;11.70;99.90
10702;DHT22;5402;50.004;8.246;2022-12-29T13:45:13;11.70;99.90
10702;DHT22;5402;50.004;8.246;2022-12-29T13:47:49;11.90;99.90
10702;DHT22;5402;50.004;8.246;2022-12-29T13:50:23;11.70;99.90
10702;DHT22;5402;50.004;8.246;2022-12-29T13:53:02;11.80;99.90
10702;DHT22;5402;50.004;8.246;2022-12-29T13:55:37;11.80;99.90
10702;DHT22;5402;50.004;8.246;2022-12-29T13:58:12;11.80;99.90
10702;DHT22;5402;50.004;8.246;2022-12-29T14:00:51;11.80;99.90
10702;DHT22;5402;50.004;8.246;2022-12-29T14:03:43;11.80;99.90
10702;DHT22;5402;50.004;8.246;2022-12-29T14:06:24;11.80;99.90
10702;DHT22;5402;50.004;8.246;2022-12-29T14:08:55;11.60;99.90
10702;DHT22;5402;50.004;8.246;2022-12-29T14:11:30;11.60;99.90
10702;DHT22;5402;50.004;8.246;2022-12-29T14:13:59;11.60;99.90
10702;DHT22;5402;50.004;8.246;2022-12-29T14:16:36;11.50;99.90
10702;DHT22;5402;50.004;8.246;2022-12-29T14:19:15;11.50;99.90
10702;DHT22;5402;50.004;8.246;2022-12-29T14:21:55;11.60;99.90
10702;DHT22;5402;50.004;8.246;2022-12-29T14:24:37;11.60;99.90
10702;DHT22;5402;50.004;8.246;2022-12-29T14:30:50;11.60;99.90
10702;DHT22;5402;50.004;8.246;2022-12-29T14:33:18;11.60;99.90
10702;DHT22;5402;50.004;8.246;2022-12-29T14:35:47;11.50;99.90
10702;DHT22;5402;50.004;8.246;2022-12-29T14:38:21;11.60;99.90
10702;DHT22;5402;50.004;8.246;2022-12-29T14:40:51;11.40;99.90
10702;DHT22;5402;50.004;8.246;2022-12-29T14:43:24;11.50;99.90
10702;DHT22;5402;50.004;8.246;2022-12-29T14:46:02;11.50;99.90
10702;DHT22;5402;50.004;8.246;2022-12-29T14:48:41;11.50;99.90
10702;DHT22;5402;50.004;8.246;2022-12-29T14:51:29;11.40;99.90
10702;DHT22;5402;50.004;8.246;2022-12-29T14:53:57;11.40;99.90
10702;DHT22;5402;50.004;8.246;2022-12-29T14:56:26;11.30;99.90
10702;DHT22;5402;50.004;8.246;2022-12-29T14:58:55;11.40;99.90
10702;DHT22;5402;50.004;8.246;2022-12-29T15:01:33;11.20;99.90
10702;DHT22;5402;50.004;8.246;2022-12-29T15:04:06;11.10;99.90
10702;DHT22;5402;50.004;8.246;2022-12-29T15:06:41;11.00;99.90
10702;DHT22;5402;50.004;8.246;2022-12-29T15:09:17;10.90;99.90
10702;DHT22;5402;50.004;8.246;2022-12-29T15:11:51;10.80;99.90
10702;DHT22;5402;50.004;8.246;2022-12-29T15:14:31;10.80;99.90
10702;DHT22;5402;50.004;8.246;2022-12-29T15:17:08;10.80;99.90
10702;DHT22;5402;50.004;8.246;2022-12-29T15:19:36;11.00;99.90
10702;DHT22;5402;50.004;8.246;2022-12-29T15:22:03;10.90;99.90
10702;DHT22;5402;50.004;8.246;2022-12-29T15:24:30;10.70;99.90
10702;DHT22;5402;50.004;8.246;2022-12-29T15:27:03;10.60;99.90
10702;DHT22;5402;50.004;8.246;2022-12-29T15:29:33;10.60;99.90
10702;DHT22;5402;50.004;8.246;2022-12-29T15:32:15;10.60;99.90
10702;DHT22;5402;50.004;8.246;2022-12-29T15:34:43;10.50;99.90
10702;DHT22;5402;50.004;8.246;2022-12-29T15:37:33;10.60;99.90
10702;DHT22;5402;50.004;8.246;2022-12-29T15:40:01;10.50;99.90
10702;DHT22;5402;50.004;8.246;2022-12-29T15:42:49;10.50;99.90
10702;DHT22;5402;50.004;8.246;2022-12-29T15:45:18;10.60;99.90
10702;DHT22;5402;50.004;8.246;2022-12-29T15:47:49;10.80;99.90
10702;DHT22;5402;50.004;8.246;2022-12-29T15:50:23;10.60;99.90
10702;DHT22;5402;50.004;8.246;2022-12-29T15:52:52;10.70;99.90
10702;DHT22;5402;50.004;8.246;2022-12-29T15:55:23;10.60;99.90
10702;DHT22;5402;50.004;8.246;2022-12-29T15:57:55;10.60;99.90
10702;DHT22;5402;50.004;8.246;2022-12-29T16:00:25;10.60;99.90
10702;DHT22;5402;50.004;8.246;2022-12-29T16:02:57;10.50;99.90
10702;DHT22;5402;50.004;8.246;2022-12-29T16:05:32;10.50;99.90
10702;DHT22;5402;50.004;8.246;2022-12-29T16:07:59;10.50;99.90
10702;DHT22;5402;50.004;8.246;2022-12-29T16:10:30;10.50;99.90
10702;DHT22;5402;50.004;8.246;2022-12-29T16:13:12;10.50;99.90
10702;DHT22;5402;50.004;8.246;2022-12-29T16:15:44;10.40;99.90
10702;DHT22;5402;50.004;8.246;2022-12-29T16:18:19;10.30;99.90
10702;DHT22;5402;50.004;8.246;2022-12-29T16:20:48;10.30;99.90
10702;DHT22;5402;50.004;8.246;2022-12-29T16:23:29;10.30;99.90
10702;DHT22;5402;50.004;8.246;2022-12-29T16:26:14;10.20;99.90
10702;DHT22;5402;50.004;8.246;2022-12-29T16:28:42;10.20;99.90
10702;DHT22;5402;50.004;8.246;2022-12-29T16:31:22;10.10;99.90
10702;DHT22;5402;50.004;8.246;2022-12-29T16:33:51;10.10;99.90
10702;DHT22;5402;50.004;8.246;2022-12-29T16:36:30;10.00;99.90
10702;DHT22;5402;50.004;8.246;2022-12-29T16:39:21;10.00;99.90
10702;DHT22;5402;50.004;8.246;2022-12-29T16:41:51;10.00;99.90
10702;DHT22;5402;50.004;8.246;2022-12-29T16:44:19;10.10;99.90
10702;DHT22;5402;50.004;8.246;2022-12-29T16:47:03;10.00;99.90
10702;DHT22;5402;50.004;8.246;2022-12-29T16:50:10;9.90;99.90
10702;DHT22;5402;50.004;8.246;2022-12-29T16:52:49;9.60;99.90
10702;DHT22;5402;50.004;8.246;2022-12-29T16:55:17;9.80;99.90
10702;DHT22;5402;50.004;8.246;2022-12-29T16:57:46;9.70;99.90
10702;DHT22;5402;50.004;8.246;2022-12-29T17:00:19;9.70;99.90
10702;DHT22;5402;50.004;8.246;2022-12-29T17:02:48;9.70;99.90
10702;DHT22;5402;50.004;8.246;2022-12-29T17:05:17;9.80;99.90
10702;DHT22;5402;50.004;8.246;2022-12-29T17:07:47;9.70;99.90
10702;DHT22;5402;50.004;8.246;2022-12-29T17:10:17;9.70;99.90
10702;DHT22;5402;50.004;8.246;2022-12-29T17:12:47;9.70;99.90
10702;DHT22;5402;50.004;8.246;2022-12-29T17:15:20;9.60;99.90
10702;DHT22;5402;50.004;8.246;2022-12-29T17:17:49;9.60;99.90
10702;DHT22;5402;50.004;8.246;2022-12-29T17:20:21;9.60;99.90
10702;DHT22;5402;50.004;8.246;2022-12-29T17:22:49;9.60;99.90
10702;DHT22;5402;50.004;8.246;2022-12-29T17:25:19;9.60;99.90
10702;DHT22;5402;50.004;8.246;2022-12-29T17:27:48;9.60;99.90
10702;DHT22;5402;50.004;8.246;2022-12-29T17:30:18;9.60;99.90
10702;DHT22;5402;50.004;8.246;2022-12-29T17:32:50;9.50;99.90
10702;DHT22;5402;50.004;8.246;2022-12-29T17:35:21;9.60;99.90
10702;DHT22;5402;50.004;8.246;2022-12-29T17:37:48;9.60;99.90
10702;DHT22;5402;50.004;8.246;2022-12-29T17:40:17;9.60;99.90
10702;DHT22;5402;50.004;8.246;2022-12-29T17:42:48;9.60;99.90
10702;DHT22;5402;50.004;8.246;2022-12-29T17:45:16;9.60;99.90
10702;DHT22;5402;50.004;8.246;2022-12-29T17:47:44;9.60;99.90
10702;DHT22;5402;50.004;8.246;2022-12-29T17:50:12;9.60;99.90